sensor_id;sensor_type;location;lat;lon;timestamp;P1;durP1;ratioP1;P2;durP2;ratioP2
69358;SDS011;56520;49.066;8.660;2022-08-19T00:00:50;10.82;;;4.95;;
69358;SDS011;56520;49.066;8.660;2022-08-19T00:03:15;10.15;;;5.03;;
69358;SDS011;56520;49.066;8.660;2022-08-19T00:05:41;8.82;;;4.70;;
69358;SDS011;56520;49.066;8.660;2022-08-19T00:08:07;9.75;;;4.68;;
69358;SDS011;56520;49.066;8.660;2022-08-19T00:10:32;8.25;;;4.13;;
69358;SDS011;56520;49.066;8.660;2022-08-19T00:12:59;11.10;;;4.68;;
69358;SDS011;56520;49.066;8.660;2022-08-19T00:15:24;9.93;;;4.68;;
69358;SDS011;56520;49.066;8.660;2022-08-19T00:17:50;9.40;;;4.47;;
69358;SDS011;56520;49.066;8.660;2022-08-19T00:20:17;10.98;;;5.18;;
69358;SDS011;56520;49.066;8.660;2022-08-19T00:22:45;10.77;;;5.13;;
69358;SDS011;56520;49.066;8.660;2022-08-19T00:25:12;10.57;;;5.13;;
69358;SDS011;56520;49.066;8.660;2022-08-19T00:27:38;11.27;;;5.15;;
69358;SDS011;56520;49.066;8.660;2022-08-19T00:30:04;12.57;;;5.40;;
69358;SDS011;56520;49.066;8.660;2022-08-19T00:32:30;11.38;;;5.60;;
69358;SDS011;56520;49.066;8.660;2022-08-19T00:34:56;10.18;;;5.18;;
69358;SDS011;56520;49.066;8.660;2022-08-19T00:37:23;11.70;;;5.70;;
69358;SDS011;56520;49.066;8.660;2022-08-19T00:39:50;11.25;;;5.45;;
69358;SDS011;56520;49.066;8.660;2022-08-19T00:42:17;11.18;;;5.28;;
69358;SDS011;56520;49.066;8.660;2022-08-19T00:44:44;10.88;;;5.05;;
69358;SDS011;56520;49.066;8.660;2022-08-19T00:47:11;12.10;;;6.03;;
69358;SDS011;56520;49.066;8.660;2022-08-19T00:49:40;11.77;;;5.88;;
69358;SDS011;56520;49.066;8.660;2022-08-19T00:52:14;11.00;;;5.47;;
69358;SDS011;56520;49.066;8.660;2022-08-19T00:54:43;12.90;;;6.13;;
69358;SDS011;56520;49.066;8.660;2022-08-19T00:57:13;12.60;;;5.75;;
69358;SDS011;56520;49.066;8.660;2022-08-19T00:59:42;10.68;;;5.32;;
69358;SDS011;56520;49.066;8.660;2022-08-19T01:02:11;11.00;;;5.38;;
69358;SDS011;56520;49.066;8.660;2022-08-19T01:04:37;12.02;;;6.00;;
69358;SDS011;56520;49.066;8.660;2022-08-19T01:07:03;12.60;;;6.32;;
69358;SDS011;56520;49.066;8.660;2022-08-19T01:09:29;10.50;;;5.53;;
69358;SDS011;56520;49.066;8.660;2022-08-19T01:11:55;10.82;;;5.72;;
69358;SDS011;56520;49.066;8.660;2022-08-19T01:14:21;13.40;;;5.88;;
69358;SDS011;56520;49.066;8.660;2022-08-19T01:16:47;12.07;;;5.85;;
69358;SDS011;56520;49.066;8.660;2022-08-19T01:19:17;10.60;;;5.57;;
69358;SDS011;56520;49.066;8.660;2022-08-19T01:22:11;11.35;;;5.72;;
69358;SDS011;56520;49.066;8.660;2022-08-19T01:24:39;13.07;;;6.00;;
69358;SDS011;56520;49.066;8.660;2022-08-19T01:27:06;13.90;;;6.60;;
69358;SDS011;56520;49.066;8.660;2022-08-19T01:29:32;13.40;;;6.15;;
69358;SDS011;56520;49.066;8.660;2022-08-19T01:32:01;11.30;;;6.05;;
69358;SDS011;56520;49.066;8.660;2022-08-19T01:34:27;13.48;;;7.25;;
69358;SDS011;56520;49.066;8.660;2022-08-19T01:36:52;12.18;;;6.25;;
69358;SDS011;56520;49.066;8.660;2022-08-19T01:39:22;11.63;;;6.00;;
69358;SDS011;56520;49.066;8.660;2022-08-19T01:41:49;11.80;;;5.65;;
69358;SDS011;56520;49.066;8.660;2022-08-19T01:44:16;12.70;;;6.15;;
69358;SDS011;56520;49.066;8.660;2022-08-19T01:46:45;11.80;;;6.00;;
69358;SDS011;56520;49.066;8.660;2022-08-19T01:49:12;13.80;;;6.75;;
69358;SDS011;56520;49.066;8.660;2022-08-19T01:51:37;12.93;;;6.38;;
69358;SDS011;56520;49.066;8.660;2022-08-19T01:54:03;12.98;;;6.72;;
69358;SDS011;56520;49.066;8.660;2022-08-19T01:56:29;12.32;;;6.47;;
69358;SDS011;56520;49.066;8.660;2022-08-19T01:58:59;12.07;;;6.38;;
69358;SDS011;56520;49.066;8.660;2022-08-19T02:01:28;11.98;;;6.05;;
69358;SDS011;56520;49.066;8.660;2022-08-19T02:03:56;11.25;;;5.70;;
69358;SDS011;56520;49.066;8.660;2022-08-19T02:06:23;12.10;;;5.82;;
69358;SDS011;56520;49.066;8.660;2022-08-19T02:08:49;11.02;;;5.90;;
69358;SDS011;56520;49.066;8.660;2022-08-19T02:11:22;13.30;;;6.13;;
69358;SDS011;56520;49.066;8.660;2022-08-19T02:13:51;14.45;;;6.93;;
69358;SDS011;56520;49.066;8.660;2022-08-19T02:16:18;12.10;;;6.78;;
69358;SDS011;56520;49.066;8.660;2022-08-19T02:18:44;12.32;;;6.57;;
69358;SDS011;56520;49.066;8.660;2022-08-19T02:21:10;11.20;;;6.20;;
69358;SDS011;56520;49.066;8.660;2022-08-19T02:23:36;14.52;;;7.03;;
69358;SDS011;56520;49.066;8.660;2022-08-19T02:26:01;14.13;;;6.63;;
69358;SDS011;56520;49.066;8.660;2022-08-19T02:28:27;10.93;;;5.38;;
69358;SDS011;56520;49.066;8.660;2022-08-19T02:30:52;10.45;;;5.10;;
69358;SDS011;56520;49.066;8.660;2022-08-19T02:33:18;11.40;;;5.72;;
69358;SDS011;56520;49.066;8.660;2022-08-19T02:35:44;11.85;;;5.40;;
69358;SDS011;56520;49.066;8.660;2022-08-19T02:38:10;10.20;;;4.85;;
69358;SDS011;56520;49.066;8.660;2022-08-19T02:40:52;12.05;;;5.85;;
69358;SDS011;56520;49.066;8.660;2022-08-19T02:43:29;11.80;;;5.97;;
69358;SDS011;56520;49.066;8.660;2022-08-19T02:45:56;10.75;;;4.78;;
69358;SDS011;56520;49.066;8.660;2022-08-19T02:48:23;9.13;;;4.68;;
69358;SDS011;56520;49.066;8.660;2022-08-19T02:50:51;11.30;;;5.47;;
69358;SDS011;56520;49.066;8.660;2022-08-19T02:53:20;11.82;;;6.18;;
69358;SDS011;56520;49.066;8.660;2022-08-19T02:55:50;12.27;;;6.30;;
69358;SDS011;56520;49.066;8.660;2022-08-19T02:58:16;11.55;;;5.70;;
69358;SDS011;56520;49.066;8.660;2022-08-19T03:00:42;10.57;;;5.93;;
69358;SDS011;56520;49.066;8.660;2022-08-19T03:03:14;11.82;;;6.00;;
69358;SDS011;56520;49.066;8.660;2022-08-19T03:05:40;12.32;;;6.05;;
69358;SDS011;56520;49.066;8.660;2022-08-19T03:08:06;12.77;;;6.63;;
69358;SDS011;56520;49.066;8.660;2022-08-19T03:10:33;12.70;;;6.55;;
69358;SDS011;56520;49.066;8.660;2022-08-19T03:13:07;13.05;;;6.35;;
69358;SDS011;56520;49.066;8.660;2022-08-19T03:15:33;13.02;;;6.38;;
69358;SDS011;56520;49.066;8.660;2022-08-19T03:17:59;11.52;;;6.38;;
69358;SDS011;56520;49.066;8.660;2022-08-19T03:20:24;9.82;;;5.65;;
69358;SDS011;56520;49.066;8.660;2022-08-19T03:22:51;10.73;;;5.35;;
69358;SDS011;56520;49.066;8.660;2022-08-19T03:25:16;13.77;;;6.97;;
69358;SDS011;56520;49.066;8.660;2022-08-19T03:27:42;13.57;;;7.15;;
69358;SDS011;56520;49.066;8.660;2022-08-19T03:30:08;12.98;;;6.57;;
69358;SDS011;56520;49.066;8.660;2022-08-19T03:32:35;12.20;;;6.60;;
69358;SDS011;56520;49.066;8.660;2022-08-19T03:35:01;12.13;;;6.00;;
69358;SDS011;56520;49.066;8.660;2022-08-19T03:37:27;10.85;;;5.65;;
69358;SDS011;56520;49.066;8.660;2022-08-19T03:39:53;13.38;;;6.75;;
69358;SDS011;56520;49.066;8.660;2022-08-19T03:42:18;12.15;;;6.32;;
69358;SDS011;56520;49.066;8.660;2022-08-19T03:44:44;13.98;;;6.97;;
69358;SDS011;56520;49.066;8.660;2022-08-19T03:47:09;11.45;;;6.25;;
69358;SDS011;56520;49.066;8.660;2022-08-19T03:49:40;12.20;;;5.97;;
69358;SDS011;56520;49.066;8.660;2022-08-19T03:52:06;13.43;;;6.97;;
69358;SDS011;56520;49.066;8.660;2022-08-19T03:54:32;11.35;;;5.85;;
69358;SDS011;56520;49.066;8.660;2022-08-19T03:56:58;11.63;;;6.10;;
69358;SDS011;56520;49.066;8.660;2022-08-19T03:59:25;11.10;;;5.82;;
69358;SDS011;56520;49.066;8.660;2022-08-19T04:01:56;11.98;;;6.55;;
69358;SDS011;56520;49.066;8.660;2022-08-19T04:04:24;12.43;;;6.10;;
69358;SDS011;56520;49.066;8.660;2022-08-19T04:06:50;10.77;;;6.00;;
69358;SDS011;56520;49.066;8.660;2022-08-19T04:09:17;12.45;;;6.60;;
69358;SDS011;56520;49.066;8.660;2022-08-19T04:11:45;12.10;;;6.07;;
69358;SDS011;56520;49.066;8.660;2022-08-19T04:14:14;11.00;;;6.00;;
69358;SDS011;56520;49.066;8.660;2022-08-19T04:16:41;12.38;;;6.82;;
69358;SDS011;56520;49.066;8.660;2022-08-19T04:19:09;11.07;;;5.95;;
69358;SDS011;56520;49.066;8.660;2022-08-19T04:21:34;13.15;;;6.60;;
69358;SDS011;56520;49.066;8.660;2022-08-19T04:24:00;14.23;;;7.25;;
69358;SDS011;56520;49.066;8.660;2022-08-19T04:26:27;14.95;;;7.88;;
69358;SDS011;56520;49.066;8.660;2022-08-19T04:28:56;14.32;;;7.20;;
69358;SDS011;56520;49.066;8.660;2022-08-19T04:31:24;13.05;;;7.28;;
69358;SDS011;56520;49.066;8.660;2022-08-19T04:33:54;13.82;;;7.55;;
69358;SDS011;56520;49.066;8.660;2022-08-19T04:36:22;12.77;;;6.63;;
69358;SDS011;56520;49.066;8.660;2022-08-19T04:38:53;12.30;;;6.78;;
69358;SDS011;56520;49.066;8.660;2022-08-19T04:41:24;11.95;;;6.60;;
69358;SDS011;56520;49.066;8.660;2022-08-19T04:44:08;13.38;;;7.35;;
69358;SDS011;56520;49.066;8.660;2022-08-19T04:46:34;14.90;;;7.40;;
69358;SDS011;56520;49.066;8.660;2022-08-19T04:49:02;13.88;;;6.97;;
69358;SDS011;56520;49.066;8.660;2022-08-19T04:51:30;12.15;;;6.53;;
69358;SDS011;56520;49.066;8.660;2022-08-19T04:53:56;15.13;;;8.38;;
69358;SDS011;56520;49.066;8.660;2022-08-19T04:56:21;14.18;;;7.53;;
69358;SDS011;56520;49.066;8.660;2022-08-19T04:58:47;15.57;;;7.72;;
69358;SDS011;56520;49.066;8.660;2022-08-19T05:01:19;14.10;;;7.03;;
69358;SDS011;56520;49.066;8.660;2022-08-19T05:03:46;13.90;;;7.40;;
69358;SDS011;56520;49.066;8.660;2022-08-19T05:06:13;15.50;;;8.00;;
69358;SDS011;56520;49.066;8.660;2022-08-19T05:08:40;13.88;;;6.68;;
69358;SDS011;56520;49.066;8.660;2022-08-19T05:11:22;13.02;;;7.32;;
69358;SDS011;56520;49.066;8.660;2022-08-19T05:13:51;14.73;;;7.60;;
69358;SDS011;56520;49.066;8.660;2022-08-19T05:16:18;14.73;;;7.60;;
69358;SDS011;56520;49.066;8.660;2022-08-19T05:18:46;13.40;;;6.68;;
69358;SDS011;56520;49.066;8.660;2022-08-19T05:21:31;14.07;;;7.05;;
69358;SDS011;56520;49.066;8.660;2022-08-19T05:24:16;13.55;;;6.72;;
69358;SDS011;56520;49.066;8.660;2022-08-19T05:26:44;13.85;;;7.05;;
69358;SDS011;56520;49.066;8.660;2022-08-19T05:29:12;12.93;;;6.68;;
69358;SDS011;56520;49.066;8.660;2022-08-19T05:31:42;11.70;;;6.43;;
69358;SDS011;56520;49.066;8.660;2022-08-19T05:34:08;11.68;;;5.55;;
69358;SDS011;56520;49.066;8.660;2022-08-19T05:36:39;11.48;;;6.03;;
69358;SDS011;56520;49.066;8.660;2022-08-19T05:39:10;11.00;;;6.40;;
69358;SDS011;56520;49.066;8.660;2022-08-19T05:41:42;10.50;;;5.97;;
69358;SDS011;56520;49.066;8.660;2022-08-19T05:44:09;11.27;;;6.30;;
69358;SDS011;56520;49.066;8.660;2022-08-19T05:46:38;12.65;;;6.50;;
69358;SDS011;56520;49.066;8.660;2022-08-19T05:49:07;12.38;;;6.80;;
69358;SDS011;56520;49.066;8.660;2022-08-19T05:51:33;11.45;;;6.32;;
69358;SDS011;56520;49.066;8.660;2022-08-19T05:54:02;13.82;;;6.70;;
69358;SDS011;56520;49.066;8.660;2022-08-19T05:56:29;14.15;;;7.25;;
69358;SDS011;56520;49.066;8.660;2022-08-19T05:58:56;11.38;;;6.13;;
69358;SDS011;56520;49.066;8.660;2022-08-19T06:01:23;12.90;;;7.10;;
69358;SDS011;56520;49.066;8.660;2022-08-19T06:03:49;15.27;;;7.25;;
69358;SDS011;56520;49.066;8.660;2022-08-19T06:06:16;12.55;;;6.75;;
69358;SDS011;56520;49.066;8.660;2022-08-19T06:08:42;15.00;;;7.30;;
69358;SDS011;56520;49.066;8.660;2022-08-19T06:13:40;12.00;;;6.30;;
69358;SDS011;56520;49.066;8.660;2022-08-19T06:16:06;12.02;;;5.88;;
69358;SDS011;56520;49.066;8.660;2022-08-19T06:18:32;13.07;;;6.80;;
69358;SDS011;56520;49.066;8.660;2022-08-19T06:20:58;13.30;;;6.47;;
69358;SDS011;56520;49.066;8.660;2022-08-19T06:23:23;11.57;;;6.10;;
69358;SDS011;56520;49.066;8.660;2022-08-19T06:25:50;12.00;;;6.57;;
69358;SDS011;56520;49.066;8.660;2022-08-19T06:28:16;13.38;;;6.43;;
69358;SDS011;56520;49.066;8.660;2022-08-19T06:30:41;13.65;;;7.07;;
69358;SDS011;56520;49.066;8.660;2022-08-19T06:33:07;12.23;;;6.38;;
69358;SDS011;56520;49.066;8.660;2022-08-19T06:35:33;13.35;;;6.90;;
69358;SDS011;56520;49.066;8.660;2022-08-19T06:38:04;12.15;;;6.57;;
69358;SDS011;56520;49.066;8.660;2022-08-19T06:40:30;11.75;;;6.25;;
69358;SDS011;56520;49.066;8.660;2022-08-19T06:42:55;11.30;;;6.57;;
69358;SDS011;56520;49.066;8.660;2022-08-19T06:45:22;12.30;;;6.28;;
69358;SDS011;56520;49.066;8.660;2022-08-19T06:47:48;12.70;;;6.45;;
69358;SDS011;56520;49.066;8.660;2022-08-19T06:50:13;11.52;;;6.03;;
69358;SDS011;56520;49.066;8.660;2022-08-19T06:52:39;12.07;;;6.15;;
69358;SDS011;56520;49.066;8.660;2022-08-19T06:55:04;14.50;;;5.93;;
69358;SDS011;56520;49.066;8.660;2022-08-19T06:57:31;11.00;;;6.10;;
69358;SDS011;56520;49.066;8.660;2022-08-19T06:59:57;11.88;;;6.25;;
69358;SDS011;56520;49.066;8.660;2022-08-19T07:02:25;11.68;;;6.13;;
69358;SDS011;56520;49.066;8.660;2022-08-19T07:04:51;14.30;;;6.47;;
69358;SDS011;56520;49.066;8.660;2022-08-19T07:07:18;13.05;;;6.72;;
69358;SDS011;56520;49.066;8.660;2022-08-19T07:09:45;11.30;;;5.97;;
69358;SDS011;56520;49.066;8.660;2022-08-19T07:12:11;11.95;;;6.03;;
69358;SDS011;56520;49.066;8.660;2022-08-19T07:14:39;10.60;;;5.60;;
69358;SDS011;56520;49.066;8.660;2022-08-19T07:17:06;11.48;;;5.88;;
69358;SDS011;56520;49.066;8.660;2022-08-19T07:19:34;12.00;;;6.35;;
69358;SDS011;56520;49.066;8.660;2022-08-19T07:22:01;12.73;;;6.93;;
69358;SDS011;56520;49.066;8.660;2022-08-19T07:24:29;13.50;;;6.30;;
69358;SDS011;56520;49.066;8.660;2022-08-19T07:26:56;12.75;;;6.68;;
69358;SDS011;56520;49.066;8.660;2022-08-19T07:29:25;12.07;;;6.25;;
69358;SDS011;56520;49.066;8.660;2022-08-19T07:31:52;12.00;;;6.13;;
69358;SDS011;56520;49.066;8.660;2022-08-19T07:34:21;11.48;;;5.57;;
69358;SDS011;56520;49.066;8.660;2022-08-19T07:36:48;13.65;;;6.20;;
69358;SDS011;56520;49.066;8.660;2022-08-19T07:39:16;11.13;;;6.10;;
69358;SDS011;56520;49.066;8.660;2022-08-19T07:41:46;10.82;;;5.93;;
69358;SDS011;56520;49.066;8.660;2022-08-19T07:44:12;9.93;;;5.55;;
69358;SDS011;56520;49.066;8.660;2022-08-19T07:46:40;11.88;;;5.97;;
69358;SDS011;56520;49.066;8.660;2022-08-19T07:49:09;10.57;;;5.38;;
69358;SDS011;56520;49.066;8.660;2022-08-19T07:51:39;11.48;;;5.70;;
69358;SDS011;56520;49.066;8.660;2022-08-19T07:54:05;10.93;;;5.18;;
69358;SDS011;56520;49.066;8.660;2022-08-19T07:56:30;11.77;;;5.78;;
69358;SDS011;56520;49.066;8.660;2022-08-19T07:58:56;11.73;;;5.72;;
69358;SDS011;56520;49.066;8.660;2022-08-19T08:01:23;13.27;;;6.07;;
69358;SDS011;56520;49.066;8.660;2022-08-19T08:03:51;10.30;;;5.25;;
69358;SDS011;56520;49.066;8.660;2022-08-19T08:06:36;9.55;;;4.38;;
69358;SDS011;56520;49.066;8.660;2022-08-19T08:09:23;11.65;;;5.25;;
69358;SDS011;56520;49.066;8.660;2022-08-19T08:11:55;9.52;;;4.88;;
69358;SDS011;56520;49.066;8.660;2022-08-19T08:14:24;11.45;;;5.43;;
69358;SDS011;56520;49.066;8.660;2022-08-19T08:17:12;9.07;;;4.75;;
69358;SDS011;56520;49.066;8.660;2022-08-19T08:19:38;10.15;;;4.72;;
69358;SDS011;56520;49.066;8.660;2022-08-19T08:22:06;11.05;;;5.10;;
69358;SDS011;56520;49.066;8.660;2022-08-19T08:24:32;10.52;;;4.80;;
69358;SDS011;56520;49.066;8.660;2022-08-19T08:26:59;9.48;;;4.88;;
69358;SDS011;56520;49.066;8.660;2022-08-19T08:29:26;10.95;;;5.15;;
69358;SDS011;56520;49.066;8.660;2022-08-19T08:31:52;13.18;;;4.80;;
69358;SDS011;56520;49.066;8.660;2022-08-19T08:34:18;10.60;;;4.68;;
69358;SDS011;56520;49.066;8.660;2022-08-19T08:36:45;12.48;;;5.20;;
69358;SDS011;56520;49.066;8.660;2022-08-19T08:39:12;9.52;;;5.07;;
69358;SDS011;56520;49.066;8.660;2022-08-19T08:44:38;9.57;;;4.60;;
69358;SDS011;56520;49.066;8.660;2022-08-19T08:47:13;10.60;;;4.72;;
69358;SDS011;56520;49.066;8.660;2022-08-19T08:49:50;8.27;;;3.80;;
69358;SDS011;56520;49.066;8.660;2022-08-19T08:54:54;8.63;;;3.85;;
69358;SDS011;56520;49.066;8.660;2022-08-19T09:03:06;10.18;;;4.10;;
69358;SDS011;56520;49.066;8.660;2022-08-19T09:06:02;8.90;;;3.63;;
69358;SDS011;56520;49.066;8.660;2022-08-19T09:12:00;8.15;;;3.70;;
69358;SDS011;56520;49.066;8.660;2022-08-19T09:16:38;8.35;;;3.42;;
69358;SDS011;56520;49.066;8.660;2022-08-19T09:19:06;7.28;;;3.60;;
69358;SDS011;56520;49.066;8.660;2022-08-19T09:21:33;7.72;;;3.40;;
69358;SDS011;56520;49.066;8.660;2022-08-19T09:24:00;7.88;;;3.22;;
69358;SDS011;56520;49.066;8.660;2022-08-19T09:26:26;6.88;;;3.25;;
69358;SDS011;56520;49.066;8.660;2022-08-19T09:28:52;7.60;;;3.45;;
69358;SDS011;56520;49.066;8.660;2022-08-19T09:31:23;8.35;;;3.35;;
69358;SDS011;56520;49.066;8.660;2022-08-19T09:33:50;6.30;;;3.15;;
69358;SDS011;56520;49.066;8.660;2022-08-19T09:36:18;7.75;;;3.30;;
69358;SDS011;56520;49.066;8.660;2022-08-19T09:38:44;11.55;;;3.33;;
69358;SDS011;56520;49.066;8.660;2022-08-19T09:41:14;8.55;;;3.40;;
69358;SDS011;56520;49.066;8.660;2022-08-19T09:43:44;7.63;;;3.10;;
69358;SDS011;56520;49.066;8.660;2022-08-19T09:46:10;6.78;;;2.78;;
69358;SDS011;56520;49.066;8.660;2022-08-19T09:48:37;8.02;;;3.08;;
69358;SDS011;56520;49.066;8.660;2022-08-19T09:51:07;6.32;;;2.72;;
69358;SDS011;56520;49.066;8.660;2022-08-19T09:53:35;7.57;;;3.22;;
69358;SDS011;56520;49.066;8.660;2022-08-19T09:56:01;7.85;;;3.50;;
69358;SDS011;56520;49.066;8.660;2022-08-19T09:58:27;6.43;;;2.72;;
69358;SDS011;56520;49.066;8.660;2022-08-19T10:00:55;9.35;;;3.03;;
69358;SDS011;56520;49.066;8.660;2022-08-19T10:03:21;6.40;;;2.70;;
69358;SDS011;56520;49.066;8.660;2022-08-19T10:05:47;6.22;;;2.70;;
69358;SDS011;56520;49.066;8.660;2022-08-19T10:08:20;5.38;;;2.30;;
69358;SDS011;56520;49.066;8.660;2022-08-19T10:10:48;8.80;;;2.50;;
69358;SDS011;56520;49.066;8.660;2022-08-19T10:13:15;6.13;;;2.38;;
69358;SDS011;56520;49.066;8.660;2022-08-19T10:15:42;6.47;;;2.40;;
69358;SDS011;56520;49.066;8.660;2022-08-19T10:18:09;7.15;;;2.67;;
69358;SDS011;56520;49.066;8.660;2022-08-19T10:20:35;6.78;;;2.33;;
69358;SDS011;56520;49.066;8.660;2022-08-19T10:23:01;5.78;;;2.60;;
69358;SDS011;56520;49.066;8.660;2022-08-19T10:25:28;6.43;;;2.63;;
69358;SDS011;56520;49.066;8.660;2022-08-19T10:27:53;6.78;;;2.80;;
69358;SDS011;56520;49.066;8.660;2022-08-19T10:30:19;5.72;;;2.60;;
69358;SDS011;56520;49.066;8.660;2022-08-19T10:32:45;6.00;;;2.40;;
69358;SDS011;56520;49.066;8.660;2022-08-19T10:35:12;6.40;;;2.67;;
69358;SDS011;56520;49.066;8.660;2022-08-19T10:37:38;6.43;;;2.42;;
69358;SDS011;56520;49.066;8.660;2022-08-19T10:40:05;6.65;;;2.40;;
69358;SDS011;56520;49.066;8.660;2022-08-19T10:42:32;6.30;;;2.40;;
69358;SDS011;56520;49.066;8.660;2022-08-19T10:44:58;6.07;;;2.53;;
69358;SDS011;56520;49.066;8.660;2022-08-19T10:47:23;6.50;;;2.70;;
69358;SDS011;56520;49.066;8.660;2022-08-19T10:49:49;6.10;;;2.65;;
69358;SDS011;56520;49.066;8.660;2022-08-19T10:52:33;6.72;;;2.42;;
69358;SDS011;56520;49.066;8.660;2022-08-19T10:54:59;7.10;;;2.80;;
69358;SDS011;56520;49.066;8.660;2022-08-19T10:57:44;6.65;;;3.10;;
69358;SDS011;56520;49.066;8.660;2022-08-19T11:00:10;6.47;;;3.10;;
69358;SDS011;56520;49.066;8.660;2022-08-19T11:02:36;7.25;;;2.42;;
69358;SDS011;56520;49.066;8.660;2022-08-19T11:05:02;6.15;;;2.88;;
69358;SDS011;56520;49.066;8.660;2022-08-19T11:07:28;6.32;;;2.80;;
69358;SDS011;56520;49.066;8.660;2022-08-19T11:09:53;7.50;;;3.10;;
69358;SDS011;56520;49.066;8.660;2022-08-19T11:12:19;9.10;;;3.28;;
69358;SDS011;56520;49.066;8.660;2022-08-19T11:14:44;7.43;;;2.85;;
69358;SDS011;56520;49.066;8.660;2022-08-19T11:17:10;6.90;;;2.97;;
69358;SDS011;56520;49.066;8.660;2022-08-19T11:19:38;6.70;;;2.85;;
69358;SDS011;56520;49.066;8.660;2022-08-19T11:22:06;8.10;;;2.90;;
69358;SDS011;56520;49.066;8.660;2022-08-19T11:24:34;7.25;;;3.35;;
69358;SDS011;56520;49.066;8.660;2022-08-19T11:27:03;6.30;;;2.88;;
69358;SDS011;56520;49.066;8.660;2022-08-19T11:29:31;7.55;;;2.97;;
69358;SDS011;56520;49.066;8.660;2022-08-19T11:31:57;6.53;;;3.00;;
69358;SDS011;56520;49.066;8.660;2022-08-19T11:34:25;6.53;;;3.40;;
69358;SDS011;56520;49.066;8.660;2022-08-19T11:36:53;6.65;;;3.13;;
69358;SDS011;56520;49.066;8.660;2022-08-19T11:39:21;7.05;;;3.05;;
69358;SDS011;56520;49.066;8.660;2022-08-19T11:41:47;6.97;;;3.40;;
69358;SDS011;56520;49.066;8.660;2022-08-19T11:44:13;7.35;;;2.92;;
69358;SDS011;56520;49.066;8.660;2022-08-19T11:46:39;6.13;;;2.70;;
69358;SDS011;56520;49.066;8.660;2022-08-19T11:49:06;7.07;;;2.70;;
69358;SDS011;56520;49.066;8.660;2022-08-19T11:51:32;7.22;;;2.88;;
69358;SDS011;56520;49.066;8.660;2022-08-19T11:53:59;6.10;;;2.90;;
69358;SDS011;56520;49.066;8.660;2022-08-19T11:56:25;7.68;;;3.03;;
69358;SDS011;56520;49.066;8.660;2022-08-19T11:58:52;7.63;;;3.10;;
69358;SDS011;56520;49.066;8.660;2022-08-19T12:01:20;6.65;;;2.85;;
69358;SDS011;56520;49.066;8.660;2022-08-19T12:03:47;6.05;;;2.78;;
69358;SDS011;56520;49.066;8.660;2022-08-19T12:06:15;6.43;;;3.05;;
69358;SDS011;56520;49.066;8.660;2022-08-19T12:08:48;6.47;;;2.85;;
69358;SDS011;56520;49.066;8.660;2022-08-19T12:11:14;7.35;;;3.17;;
69358;SDS011;56520;49.066;8.660;2022-08-19T12:13:41;6.80;;;2.90;;
69358;SDS011;56520;49.066;8.660;2022-08-19T12:16:20;8.40;;;3.00;;
69358;SDS011;56520;49.066;8.660;2022-08-19T12:18:48;6.28;;;2.80;;
69358;SDS011;56520;49.066;8.660;2022-08-19T12:21:15;8.02;;;3.10;;
69358;SDS011;56520;49.066;8.660;2022-08-19T12:23:46;5.90;;;2.60;;
69358;SDS011;56520;49.066;8.660;2022-08-19T12:26:12;5.53;;;2.60;;
69358;SDS011;56520;49.066;8.660;2022-08-19T12:28:38;6.20;;;2.80;;
69358;SDS011;56520;49.066;8.660;2022-08-19T12:31:03;6.80;;;3.00;;
69358;SDS011;56520;49.066;8.660;2022-08-19T12:33:29;6.05;;;2.72;;
69358;SDS011;56520;49.066;8.660;2022-08-19T12:35:59;7.10;;;2.70;;
69358;SDS011;56520;49.066;8.660;2022-08-19T12:38:28;6.65;;;2.80;;
69358;SDS011;56520;49.066;8.660;2022-08-19T12:40:53;6.25;;;2.70;;
69358;SDS011;56520;49.066;8.660;2022-08-19T12:43:19;6.47;;;2.80;;
69358;SDS011;56520;49.066;8.660;2022-08-19T12:45:45;7.25;;;2.88;;
69358;SDS011;56520;49.066;8.660;2022-08-19T12:48:11;5.82;;;2.70;;
69358;SDS011;56520;49.066;8.660;2022-08-19T12:50:41;7.57;;;2.70;;
69358;SDS011;56520;49.066;8.660;2022-08-19T12:53:08;6.47;;;2.80;;
69358;SDS011;56520;49.066;8.660;2022-08-19T12:55:33;5.88;;;2.88;;
69358;SDS011;56520;49.066;8.660;2022-08-19T12:57:59;6.72;;;2.70;;
69358;SDS011;56520;49.066;8.660;2022-08-19T13:00:26;6.18;;;2.60;;
69358;SDS011;56520;49.066;8.660;2022-08-19T13:02:52;6.60;;;2.70;;
69358;SDS011;56520;49.066;8.660;2022-08-19T13:05:22;6.18;;;2.55;;
69358;SDS011;56520;49.066;8.660;2022-08-19T13:07:50;6.30;;;2.55;;
69358;SDS011;56520;49.066;8.660;2022-08-19T13:10:18;6.53;;;2.65;;
69358;SDS011;56520;49.066;8.660;2022-08-19T13:12:46;5.43;;;2.50;;
69358;SDS011;56520;49.066;8.660;2022-08-19T13:15:13;6.13;;;2.63;;
69358;SDS011;56520;49.066;8.660;2022-08-19T13:17:39;5.97;;;2.67;;
69358;SDS011;56520;49.066;8.660;2022-08-19T13:20:07;5.68;;;2.70;;
69358;SDS011;56520;49.066;8.660;2022-08-19T13:22:34;7.28;;;3.10;;
69358;SDS011;56520;49.066;8.660;2022-08-19T13:25:00;8.07;;;2.83;;
69358;SDS011;56520;49.066;8.660;2022-08-19T13:27:27;6.43;;;2.78;;
69358;SDS011;56520;49.066;8.660;2022-08-19T13:29:52;5.93;;;2.90;;
69358;SDS011;56520;49.066;8.660;2022-08-19T13:32:36;6.43;;;2.92;;
69358;SDS011;56520;49.066;8.660;2022-08-19T13:35:20;8.05;;;2.80;;
69358;SDS011;56520;49.066;8.660;2022-08-19T13:37:46;6.97;;;3.30;;
69358;SDS011;56520;49.066;8.660;2022-08-19T13:40:13;7.65;;;3.30;;
69358;SDS011;56520;49.066;8.660;2022-08-19T13:42:43;6.68;;;3.35;;
69358;SDS011;56520;49.066;8.660;2022-08-19T13:45:11;6.82;;;3.30;;
69358;SDS011;56520;49.066;8.660;2022-08-19T13:47:37;6.07;;;2.97;;
69358;SDS011;56520;49.066;8.660;2022-08-19T13:50:11;7.10;;;3.38;;
69358;SDS011;56520;49.066;8.660;2022-08-19T13:52:38;6.57;;;3.10;;
69358;SDS011;56520;49.066;8.660;2022-08-19T13:55:05;7.28;;;3.30;;
69358;SDS011;56520;49.066;8.660;2022-08-19T13:57:32;6.95;;;3.05;;
69358;SDS011;56520;49.066;8.660;2022-08-19T13:59:58;6.00;;;2.88;;
69358;SDS011;56520;49.066;8.660;2022-08-19T14:02:23;6.63;;;2.70;;
69358;SDS011;56520;49.066;8.660;2022-08-19T14:04:51;6.25;;;2.80;;
69358;SDS011;56520;49.066;8.660;2022-08-19T14:07:17;8.10;;;2.80;;
69358;SDS011;56520;49.066;8.660;2022-08-19T14:09:43;5.50;;;2.47;;
69358;SDS011;56520;49.066;8.660;2022-08-19T14:12:08;5.97;;;2.70;;
69358;SDS011;56520;49.066;8.660;2022-08-19T14:14:37;5.40;;;2.40;;
69358;SDS011;56520;49.066;8.660;2022-08-19T14:17:07;5.50;;;2.55;;
69358;SDS011;56520;49.066;8.660;2022-08-19T14:19:33;5.78;;;2.80;;
69358;SDS011;56520;49.066;8.660;2022-08-19T14:21:59;5.10;;;2.40;;
69358;SDS011;56520;49.066;8.660;2022-08-19T14:24:24;6.28;;;2.55;;
69358;SDS011;56520;49.066;8.660;2022-08-19T14:26:50;6.65;;;2.90;;
69358;SDS011;56520;49.066;8.660;2022-08-19T14:29:15;7.13;;;2.60;;
69358;SDS011;56520;49.066;8.660;2022-08-19T14:31:41;5.55;;;2.50;;
69358;SDS011;56520;49.066;8.660;2022-08-19T14:34:09;5.78;;;2.30;;
69358;SDS011;56520;49.066;8.660;2022-08-19T14:36:35;5.30;;;2.20;;
69358;SDS011;56520;49.066;8.660;2022-08-19T14:39:01;5.05;;;2.20;;
69358;SDS011;56520;49.066;8.660;2022-08-19T14:41:28;5.40;;;2.60;;
69358;SDS011;56520;49.066;8.660;2022-08-19T14:43:55;5.22;;;2.08;;
69358;SDS011;56520;49.066;8.660;2022-08-19T14:46:22;5.93;;;2.35;;
69358;SDS011;56520;49.066;8.660;2022-08-19T14:48:50;5.63;;;2.28;;
69358;SDS011;56520;49.066;8.660;2022-08-19T14:51:17;6.55;;;2.20;;
69358;SDS011;56520;49.066;8.660;2022-08-19T14:53:44;6.10;;;2.90;;
69358;SDS011;56520;49.066;8.660;2022-08-19T14:56:13;5.80;;;2.58;;
69358;SDS011;56520;49.066;8.660;2022-08-19T14:58:41;5.85;;;2.38;;
69358;SDS011;56520;49.066;8.660;2022-08-19T15:01:08;5.47;;;2.30;;
69358;SDS011;56520;49.066;8.660;2022-08-19T15:03:34;5.60;;;2.40;;